sensor_id;sensor_type;location;lat;lon;timestamp;temperature;humidity
61016;DHT22;46902;52.920;6.536;2024-01-16T00:01:57;0.60;99.90
61016;DHT22;46902;52.920;6.536;2024-01-16T00:04:23;0.60;99.90
61016;DHT22;46902;52.920;6.536;2024-01-16T00:06:49;0.60;99.90
61016;DHT22;46902;52.920;6.536;2024-01-16T00:09:14;0.60;99.90
61016;DHT22;46902;52.920;6.536;2024-01-16T00:11:43;0.60;99.90
61016;DHT22;46902;52.920;6.536;2024-01-16T00:14:09;0.50;99.90
61016;DHT22;46902;52.920;6.536;2024-01-16T00:17:01;0.60;99.90
61016;DHT22;46902;52.920;6.536;2024-01-16T00:19:27;0.60;99.90
61016;DHT22;46902;52.920;6.536;2024-01-16T00:21:52;0.50;99.90
61016;DHT22;46902;52.920;6.536;2024-01-16T00:24:18;0.60;99.90
61016;DHT22;46902;52.920;6.536;2024-01-16T00:26:44;0.60;99.90
61016;DHT22;46902;52.920;6.536;2024-01-16T00:29:09;0.50;99.90
61016;DHT22;46902;52.920;6.536;2024-01-16T00:31:38;0.50;99.90
61016;DHT22;46902;52.920;6.536;2024-01-16T00:34:03;0.50;99.90
61016;DHT22;46902;52.920;6.536;2024-01-16T00:36:29;0.50;99.90
61016;DHT22;46902;52.920;6.536;2024-01-16T00:38:56;0.50;99.90
61016;DHT22;46902;52.920;6.536;2024-01-16T00:41:21;0.50;99.90
61016;DHT22;46902;52.920;6.536;2024-01-16T00:43:47;0.40;99.90
61016;DHT22;46902;52.920;6.536;2024-01-16T00:46:13;0.50;99.90
61016;DHT22;46902;52.920;6.536;2024-01-16T00:48:38;0.50;99.90
61016;DHT22;46902;52.920;6.536;2024-01-16T00:51:04;0.50;99.90
61016;DHT22;46902;52.920;6.536;2024-01-16T00:53:30;0.40;99.90
61016;DHT22;46902;52.920;6.536;2024-01-16T00:55:55;0.50;99.90
61016;DHT22;46902;52.920;6.536;2024-01-16T00:58:24;0.40;99.90
61016;DHT22;46902;52.920;6.536;2024-01-16T01:00:50;0.40;99.90
61016;DHT22;46902;52.920;6.536;2024-01-16T01:03:15;0.30;99.90
61016;DHT22;46902;52.920;6.536;2024-01-16T01:05:41;0.40;99.90
61016;DHT22;46902;52.920;6.536;2024-01-16T01:08:07;0.40;99.90
61016;DHT22;46902;52.920;6.536;2024-01-16T01:10:33;0.40;99.90
61016;DHT22;46902;52.920;6.536;2024-01-16T01:12:58;0.30;99.90
61016;DHT22;46902;52.920;6.536;2024-01-16T01:15:24;0.40;99.90
61016;DHT22;46902;52.920;6.536;2024-01-16T01:17:50;0.40;99.90
61016;DHT22;46902;52.920;6.536;2024-01-16T01:20:18;0.40;99.90
61016;DHT22;46902;52.920;6.536;2024-01-16T01:22:44;0.50;99.90
61016;DHT22;46902;52.920;6.536;2024-01-16T01:25:10;0.50;99.90
61016;DHT22;46902;52.920;6.536;2024-01-16T01:27:37;0.60;99.90
61016;DHT22;46902;52.920;6.536;2024-01-16T01:30:03;0.60;99.90
61016;DHT22;46902;52.920;6.536;2024-01-16T01:32:29;0.60;99.90
61016;DHT22;46902;52.920;6.536;2024-01-16T01:34:54;0.60;99.90
61016;DHT22;46902;52.920;6.536;2024-01-16T01:37:20;0.70;99.90
61016;DHT22;46902;52.920;6.536;2024-01-16T01:39:46;0.60;99.90
61016;DHT22;46902;52.920;6.536;2024-01-16T01:42:11;0.60;99.90
61016;DHT22;46902;52.920;6.536;2024-01-16T01:44:37;0.60;99.90
61016;DHT22;46902;52.920;6.536;2024-01-16T01:47:03;0.60;99.90
61016;DHT22;46902;52.920;6.536;2024-01-16T01:49:30;0.60;99.90
61016;DHT22;46902;52.920;6.536;2024-01-16T01:51:56;0.50;99.90
61016;DHT22;46902;52.920;6.536;2024-01-16T01:54:22;0.50;99.90
61016;DHT22;46902;52.920;6.536;2024-01-16T01:56:49;0.50;99.90
61016;DHT22;46902;52.920;6.536;2024-01-16T01:59:14;0.40;99.90
61016;DHT22;46902;52.920;6.536;2024-01-16T02:01:45;0.40;99.90
61016;DHT22;46902;52.920;6.536;2024-01-16T02:04:13;0.30;99.90
61016;DHT22;46902;52.920;6.536;2024-01-16T02:06:39;0.40;99.90
61016;DHT22;46902;52.920;6.536;2024-01-16T02:09:05;0.30;99.90
61016;DHT22;46902;52.920;6.536;2024-01-16T02:11:32;0.30;99.90
61016;DHT22;46902;52.920;6.536;2024-01-16T02:13:58;0.20;99.90
61016;DHT22;46902;52.920;6.536;2024-01-16T02:16:24;0.20;99.90
61016;DHT22;46902;52.920;6.536;2024-01-16T02:18:50;0.20;99.90
61016;DHT22;46902;52.920;6.536;2024-01-16T02:21:21;0.20;99.90
61016;DHT22;46902;52.920;6.536;2024-01-16T02:23:48;0.30;99.90
61016;DHT22;46902;52.920;6.536;2024-01-16T02:26:17;0.30;99.90
61016;DHT22;46902;52.920;6.536;2024-01-16T02:28:43;0.30;99.90
61016;DHT22;46902;52.920;6.536;2024-01-16T02:31:08;0.40;99.90
61016;DHT22;46902;52.920;6.536;2024-01-16T02:33:34;0.40;99.90
61016;DHT22;46902;52.920;6.536;2024-01-16T02:36:00;0.50;99.90
61016;DHT22;46902;52.920;6.536;2024-01-16T02:38:25;0.50;99.90
61016;DHT22;46902;52.920;6.536;2024-01-16T02:40:51;0.50;99.90
61016;DHT22;46902;52.920;6.536;2024-01-16T02:43:16;0.60;99.90
61016;DHT22;46902;52.920;6.536;2024-01-16T02:45:42;0.60;99.90
61016;DHT22;46902;52.920;6.536;2024-01-16T02:48:08;0.60;99.90
61016;DHT22;46902;52.920;6.536;2024-01-16T02:50:34;0.60;99.90
61016;DHT22;46902;52.920;6.536;2024-01-16T02:53:00;0.50;99.90
61016;DHT22;46902;52.920;6.536;2024-01-16T02:55:25;0.50;99.90
61016;DHT22;46902;52.920;6.536;2024-01-16T02:57:51;0.50;99.90
61016;DHT22;46902;52.920;6.536;2024-01-16T03:00:17;0.50;99.90
61016;DHT22;46902;52.920;6.536;2024-01-16T03:02:43;0.50;99.90
61016;DHT22;46902;52.920;6.536;2024-01-16T03:05:10;0.50;99.90
61016;DHT22;46902;52.920;6.536;2024-01-16T03:07:36;0.50;99.90
61016;DHT22;46902;52.920;6.536;2024-01-16T03:10:02;0.50;99.90
61016;DHT22;46902;52.920;6.536;2024-01-16T03:12:28;0.50;99.90
61016;DHT22;46902;52.920;6.536;2024-01-16T03:14:54;0.50;99.90
61016;DHT22;46902;52.920;6.536;2024-01-16T03:17:20;0.40;99.90
61016;DHT22;46902;52.920;6.536;2024-01-16T03:19:45;0.40;99.90
61016;DHT22;46902;52.920;6.536;2024-01-16T03:22:11;0.40;99.90
61016;DHT22;46902;52.920;6.536;2024-01-16T03:24:36;0.40;99.90
61016;DHT22;46902;52.920;6.536;2024-01-16T03:27:02;0.40;99.90
61016;DHT22;46902;52.920;6.536;2024-01-16T03:29:29;0.30;99.90
61016;DHT22;46902;52.920;6.536;2024-01-16T03:31:55;0.20;99.90
61016;DHT22;46902;52.920;6.536;2024-01-16T03:34:20;0.20;99.90
61016;DHT22;46902;52.920;6.536;2024-01-16T03:36:46;0.20;99.90
61016;DHT22;46902;52.920;6.536;2024-01-16T03:39:11;0.20;99.90
61016;DHT22;46902;52.920;6.536;2024-01-16T03:41:37;0.20;99.90
61016;DHT22;46902;52.920;6.536;2024-01-16T03:44:03;0.20;99.90
61016;DHT22;46902;52.920;6.536;2024-01-16T03:46:29;0.20;99.90
61016;DHT22;46902;52.920;6.536;2024-01-16T03:48:54;0.20;99.90
61016;DHT22;46902;52.920;6.536;2024-01-16T03:51:20;0.10;99.90
61016;DHT22;46902;52.920;6.536;2024-01-16T03:53:46;0.20;99.90
61016;DHT22;46902;52.920;6.536;2024-01-16T03:56:11;0.20;99.90
61016;DHT22;46902;52.920;6.536;2024-01-16T03:58:39;0.20;99.90
61016;DHT22;46902;52.920;6.536;2024-01-16T04:01:05;0.20;99.90
61016;DHT22;46902;52.920;6.536;2024-01-16T04:03:30;0.20;99.90
61016;DHT22;46902;52.920;6.536;2024-01-16T04:05:56;0.30;99.90
61016;DHT22;46902;52.920;6.536;2024-01-16T04:08:21;0.30;99.90
61016;DHT22;46902;52.920;6.536;2024-01-16T04:10:47;0.20;99.90
61016;DHT22;46902;52.920;6.536;2024-01-16T04:13:13;0.20;99.90
61016;DHT22;46902;52.920;6.536;2024-01-16T04:15:39;0.20;99.90
61016;DHT22;46902;52.920;6.536;2024-01-16T04:18:05;0.30;99.90
61016;DHT22;46902;52.920;6.536;2024-01-16T04:20:30;0.30;99.90
61016;DHT22;46902;52.920;6.536;2024-01-16T04:22:56;0.30;99.90
61016;DHT22;46902;52.920;6.536;2024-01-16T04:25:23;0.20;99.90
61016;DHT22;46902;52.920;6.536;2024-01-16T04:27:48;0.20;99.90
61016;DHT22;46902;52.920;6.536;2024-01-16T04:30:14;0.30;99.90
61016;DHT22;46902;52.920;6.536;2024-01-16T04:32:40;0.30;99.90
61016;DHT22;46902;52.920;6.536;2024-01-16T04:35:06;0.30;99.90
61016;DHT22;46902;52.920;6.536;2024-01-16T04:37:31;0.30;99.90
61016;DHT22;46902;52.920;6.536;2024-01-16T04:39:57;0.20;99.90
61016;DHT22;46902;52.920;6.536;2024-01-16T04:42:24;0.30;99.90
61016;DHT22;46902;52.920;6.536;2024-01-16T04:44:50;0.30;99.90
61016;DHT22;46902;52.920;6.536;2024-01-16T04:47:15;0.30;99.90
61016;DHT22;46902;52.920;6.536;2024-01-16T04:49:44;0.30;99.90
61016;DHT22;46902;52.920;6.536;2024-01-16T04:52:09;0.20;99.90
61016;DHT22;46902;52.920;6.536;2024-01-16T04:54:35;0.20;99.90
61016;DHT22;46902;52.920;6.536;2024-01-16T04:57:00;0.20;99.90
61016;DHT22;46902;52.920;6.536;2024-01-16T04:59:26;0.10;99.90
61016;DHT22;46902;52.920;6.536;2024-01-16T05:01:52;0.10;99.90
61016;DHT22;46902;52.920;6.536;2024-01-16T05:04:17;0.10;99.90
61016;DHT22;46902;52.920;6.536;2024-01-16T05:06:43;0.10;99.90
61016;DHT22;46902;52.920;6.536;2024-01-16T05:09:09;0.10;99.90
61016;DHT22;46902;52.920;6.536;2024-01-16T05:11:35;0.10;99.90
61016;DHT22;46902;52.920;6.536;2024-01-16T05:14:00;0.10;99.90
61016;DHT22;46902;52.920;6.536;2024-01-16T05:16:27;0.00;99.90
61016;DHT22;46902;52.920;6.536;2024-01-16T05:18:53;0.10;99.90
61016;DHT22;46902;52.920;6.536;2024-01-16T05:21:19;0.10;99.90
61016;DHT22;46902;52.920;6.536;2024-01-16T05:23:45;0.10;99.90
61016;DHT22;46902;52.920;6.536;2024-01-16T05:26:11;0.00;99.90
61016;DHT22;46902;52.920;6.536;2024-01-16T05:28:36;0.10;99.90
61016;DHT22;46902;52.920;6.536;2024-01-16T05:31:04;0.00;99.90
61016;DHT22;46902;52.920;6.536;2024-01-16T05:33:29;0.00;99.90
61016;DHT22;46902;52.920;6.536;2024-01-16T05:35:57;0.00;99.90
61016;DHT22;46902;52.920;6.536;2024-01-16T05:38:22;-0.10;99.90
61016;DHT22;46902;52.920;6.536;2024-01-16T05:40:48;0.00;99.90
61016;DHT22;46902;52.920;6.536;2024-01-16T05:43:14;-0.10;99.90
61016;DHT22;46902;52.920;6.536;2024-01-16T05:45:40;-0.10;99.90
61016;DHT22;46902;52.920;6.536;2024-01-16T05:48:06;0.00;99.90
61016;DHT22;46902;52.920;6.536;2024-01-16T05:50:34;-0.10;99.90
61016;DHT22;46902;52.920;6.536;2024-01-16T05:53:00;0.00;99.90
61016;DHT22;46902;52.920;6.536;2024-01-16T05:55:25;0.00;99.90
61016;DHT22;46902;52.920;6.536;2024-01-16T05:57:51;0.00;99.90
61016;DHT22;46902;52.920;6.536;2024-01-16T06:00:17;-0.10;99.90
61016;DHT22;46902;52.920;6.536;2024-01-16T06:02:44;-0.10;99.90
61016;DHT22;46902;52.920;6.536;2024-01-16T06:05:10;0.00;99.90
61016;DHT22;46902;52.920;6.536;2024-01-16T06:07:35;0.00;99.90
61016;DHT22;46902;52.920;6.536;2024-01-16T06:10:01;0.00;99.90
61016;DHT22;46902;52.920;6.536;2024-01-16T06:12:26;0.00;99.90
61016;DHT22;46902;52.920;6.536;2024-01-16T06:14:52;0.00;99.90
61016;DHT22;46902;52.920;6.536;2024-01-16T06:17:17;0.00;99.90
61016;DHT22;46902;52.920;6.536;2024-01-16T06:19:43;0.00;99.90
61016;DHT22;46902;52.920;6.536;2024-01-16T06:22:09;0.00;99.90
61016;DHT22;46902;52.920;6.536;2024-01-16T06:24:34;0.00;99.90
61016;DHT22;46902;52.920;6.536;2024-01-16T06:27:04;0.00;99.90
61016;DHT22;46902;52.920;6.536;2024-01-16T06:29:31;0.00;99.90
61016;DHT22;46902;52.920;6.536;2024-01-16T06:31:57;0.00;99.90
61016;DHT22;46902;52.920;6.536;2024-01-16T06:34:22;0.10;99.90
61016;DHT22;46902;52.920;6.536;2024-01-16T06:36:48;0.00;99.90
61016;DHT22;46902;52.920;6.536;2024-01-16T06:39:14;0.10;99.90
61016;DHT22;46902;52.920;6.536;2024-01-16T06:41:41;0.00;99.90
61016;DHT22;46902;52.920;6.536;2024-01-16T06:44:06;0.10;99.90
61016;DHT22;46902;52.920;6.536;2024-01-16T06:46:32;0.10;99.90
61016;DHT22;46902;52.920;6.536;2024-01-16T06:48:58;0.10;99.90
61016;DHT22;46902;52.920;6.536;2024-01-16T06:51:23;0.10;99.90
61016;DHT22;46902;52.920;6.536;2024-01-16T06:53:49;0.10;99.90
61016;DHT22;46902;52.920;6.536;2024-01-16T06:56:14;0.10;99.90
61016;DHT22;46902;52.920;6.536;2024-01-16T06:58:40;0.10;99.90
61016;DHT22;46902;52.920;6.536;2024-01-16T07:01:05;0.00;99.90
61016;DHT22;46902;52.920;6.536;2024-01-16T07:03:31;0.10;99.90
61016;DHT22;46902;52.920;6.536;2024-01-16T07:05:57;0.10;99.90
61016;DHT22;46902;52.920;6.536;2024-01-16T07:08:22;0.00;99.90
61016;DHT22;46902;52.920;6.536;2024-01-16T07:10:48;0.00;99.90
61016;DHT22;46902;52.920;6.536;2024-01-16T07:13:14;0.10;99.90
61016;DHT22;46902;52.920;6.536;2024-01-16T07:15:39;0.10;99.90
61016;DHT22;46902;52.920;6.536;2024-01-16T07:18:05;0.10;99.90
61016;DHT22;46902;52.920;6.536;2024-01-16T07:20:31;0.00;99.90
61016;DHT22;46902;52.920;6.536;2024-01-16T07:22:56;0.20;99.90
61016;DHT22;46902;52.920;6.536;2024-01-16T07:25:22;0.10;99.90
61016;DHT22;46902;52.920;6.536;2024-01-16T07:27:47;0.20;99.90
61016;DHT22;46902;52.920;6.536;2024-01-16T07:30:15;0.20;99.90
61016;DHT22;46902;52.920;6.536;2024-01-16T07:32:41;0.20;99.90
61016;DHT22;46902;52.920;6.536;2024-01-16T07:35:07;0.20;99.90
61016;DHT22;46902;52.920;6.536;2024-01-16T07:37:32;0.20;99.90
61016;DHT22;46902;52.920;6.536;2024-01-16T07:39:58;0.20;99.90
61016;DHT22;46902;52.920;6.536;2024-01-16T07:42:24;0.20;99.90
61016;DHT22;46902;52.920;6.536;2024-01-16T07:44:49;0.20;99.90
61016;DHT22;46902;52.920;6.536;2024-01-16T07:47:15;0.10;99.90
61016;DHT22;46902;52.920;6.536;2024-01-16T07:49:41;0.20;99.90
61016;DHT22;46902;52.920;6.536;2024-01-16T07:52:07;0.20;99.90
61016;DHT22;46902;52.920;6.536;2024-01-16T07:54:33;0.20;99.90
61016;DHT22;46902;52.920;6.536;2024-01-16T07:56:58;0.30;99.90
61016;DHT22;46902;52.920;6.536;2024-01-16T07:59:24;0.20;99.90
61016;DHT22;46902;52.920;6.536;2024-01-16T08:01:51;0.20;99.90
61016;DHT22;46902;52.920;6.536;2024-01-16T08:04:17;0.30;99.90
61016;DHT22;46902;52.920;6.536;2024-01-16T08:06:43;0.20;99.90
61016;DHT22;46902;52.920;6.536;2024-01-16T08:09:09;0.30;99.90
61016;DHT22;46902;52.920;6.536;2024-01-16T08:11:37;0.20;99.90
61016;DHT22;46902;52.920;6.536;2024-01-16T08:14:05;0.20;99.90
61016;DHT22;46902;52.920;6.536;2024-01-16T08:16:30;0.20;99.90
61016;DHT22;46902;52.920;6.536;2024-01-16T08:18:56;0.20;99.90
61016;DHT22;46902;52.920;6.536;2024-01-16T08:21:22;0.30;99.90
61016;DHT22;46902;52.920;6.536;2024-01-16T08:23:47;0.30;99.90
61016;DHT22;46902;52.920;6.536;2024-01-16T08:26:13;0.30;99.90
61016;DHT22;46902;52.920;6.536;2024-01-16T08:28:38;0.30;99.90
61016;DHT22;46902;52.920;6.536;2024-01-16T08:31:04;0.20;99.90
61016;DHT22;46902;52.920;6.536;2024-01-16T08:33:30;0.30;99.90
61016;DHT22;46902;52.920;6.536;2024-01-16T08:35:55;0.40;99.90
61016;DHT22;46902;52.920;6.536;2024-01-16T08:38:21;0.40;99.90
61016;DHT22;46902;52.920;6.536;2024-01-16T08:40:46;0.50;99.90
61016;DHT22;46902;52.920;6.536;2024-01-16T08:43:12;0.60;99.90
61016;DHT22;46902;52.920;6.536;2024-01-16T08:45:38;0.70;99.90
61016;DHT22;46902;52.920;6.536;2024-01-16T08:48:03;0.60;99.90
61016;DHT22;46902;52.920;6.536;2024-01-16T08:50:29;0.70;99.90
61016;DHT22;46902;52.920;6.536;2024-01-16T08:52:55;0.70;99.90
61016;DHT22;46902;52.920;6.536;2024-01-16T08:55:21;0.90;99.90
61016;DHT22;46902;52.920;6.536;2024-01-16T08:57:46;0.90;99.90
61016;DHT22;46902;52.920;6.536;2024-01-16T09:00:12;0.90;99.90
61016;DHT22;46902;52.920;6.536;2024-01-16T09:02:38;0.80;99.90
61016;DHT22;46902;52.920;6.536;2024-01-16T09:05:04;1.00;99.90
61016;DHT22;46902;52.920;6.536;2024-01-16T09:07:30;0.90;99.90
61016;DHT22;46902;52.920;6.536;2024-01-16T09:09:56;0.90;99.90
61016;DHT22;46902;52.920;6.536;2024-01-16T09:12:21;0.90;99.90
61016;DHT22;46902;52.920;6.536;2024-01-16T09:14:47;1.00;99.90
61016;DHT22;46902;52.920;6.536;2024-01-16T09:17:13;0.90;99.90
61016;DHT22;46902;52.920;6.536;2024-01-16T09:19:38;1.00;99.90
61016;DHT22;46902;52.920;6.536;2024-01-16T09:22:04;0.90;99.90
61016;DHT22;46902;52.920;6.536;2024-01-16T09:24:30;1.00;99.90
61016;DHT22;46902;52.920;6.536;2024-01-16T09:26:56;0.90;99.90
61016;DHT22;46902;52.920;6.536;2024-01-16T09:29:23;1.00;99.90
61016;DHT22;46902;52.920;6.536;2024-01-16T09:31:50;1.00;99.90
61016;DHT22;46902;52.920;6.536;2024-01-16T09:34:15;1.00;99.90
61016;DHT22;46902;52.920;6.536;2024-01-16T09:36:42;1.00;99.90
61016;DHT22;46902;52.920;6.536;2024-01-16T09:39:08;1.00;99.90
61016;DHT22;46902;52.920;6.536;2024-01-16T09:41:34;1.00;99.90
61016;DHT22;46902;52.920;6.536;2024-01-16T09:44:00;1.10;99.90
61016;DHT22;46902;52.920;6.536;2024-01-16T09:46:26;1.10;99.90
61016;DHT22;46902;52.920;6.536;2024-01-16T09:48:54;1.10;99.90
61016;DHT22;46902;52.920;6.536;2024-01-16T09:51:20;1.10;99.90
61016;DHT22;46902;52.920;6.536;2024-01-16T09:53:46;1.10;99.90
61016;DHT22;46902;52.920;6.536;2024-01-16T09:56:15;1.10;99.90
61016;DHT22;46902;52.920;6.536;2024-01-16T09:58:43;1.00;99.90
61016;DHT22;46902;52.920;6.536;2024-01-16T10:01:09;1.00;99.90
61016;DHT22;46902;52.920;6.536;2024-01-16T10:03:36;1.10;99.90
61016;DHT22;46902;52.920;6.536;2024-01-16T10:06:06;1.10;99.90
61016;DHT22;46902;52.920;6.536;2024-01-16T10:08:33;1.00;99.90
61016;DHT22;46902;52.920;6.536;2024-01-16T10:11:01;1.00;99.90
61016;DHT22;46902;52.920;6.536;2024-01-16T10:13:27;1.20;99.90
61016;DHT22;46902;52.920;6.536;2024-01-16T10:15:53;1.20;99.90
61016;DHT22;46902;52.920;6.536;2024-01-16T10:18:27;1.10;99.90
61016;DHT22;46902;52.920;6.536;2024-01-16T10:20:55;1.20;99.90
61016;DHT22;46902;52.920;6.536;2024-01-16T10:23:31;1.10;99.90
61016;DHT22;46902;52.920;6.536;2024-01-16T10:28:33;1.30;99.90
61016;DHT22;46902;52.920;6.536;2024-01-16T10:33:32;1.30;99.90
61016;DHT22;46902;52.920;6.536;2024-01-16T10:36:17;1.30;99.90
61016;DHT22;46902;52.920;6.536;2024-01-16T10:38:46;1.40;99.90
61016;DHT22;46902;52.920;6.536;2024-01-16T10:41:13;1.40;99.90
61016;DHT22;46902;52.920;6.536;2024-01-16T10:43:39;1.50;99.90
61016;DHT22;46902;52.920;6.536;2024-01-16T10:46:13;1.50;99.90
61016;DHT22;46902;52.920;6.536;2024-01-16T10:48:41;1.50;99.90
61016;DHT22;46902;52.920;6.536;2024-01-16T10:51:07;1.50;99.90
61016;DHT22;46902;52.920;6.536;2024-01-16T10:53:34;1.50;99.90
61016;DHT22;46902;52.920;6.536;2024-01-16T10:56:01;1.40;99.90
61016;DHT22;46902;52.920;6.536;2024-01-16T10:58:30;1.40;99.90
61016;DHT22;46902;52.920;6.536;2024-01-16T11:00:57;1.40;99.90
61016;DHT22;46902;52.920;6.536;2024-01-16T11:06:06;1.40;99.90
61016;DHT22;46902;52.920;6.536;2024-01-16T11:08:37;1.50;99.90
61016;DHT22;46902;52.920;6.536;2024-01-16T11:11:04;1.50;99.90
61016;DHT22;46902;52.920;6.536;2024-01-16T11:13:32;1.50;99.90
61016;DHT22;46902;52.920;6.536;2024-01-16T11:15:59;1.50;99.90
61016;DHT22;46902;52.920;6.536;2024-01-16T11:18:27;1.50;99.90
61016;DHT22;46902;52.920;6.536;2024-01-16T11:20:55;1.50;99.90
61016;DHT22;46902;52.920;6.536;2024-01-16T11:23:21;1.60;99.90
61016;DHT22;46902;52.920;6.536;2024-01-16T11:25:47;1.60;99.90
61016;DHT22;46902;52.920;6.536;2024-01-16T11:28:14;1.60;99.90
61016;DHT22;46902;52.920;6.536;2024-01-16T11:30:40;1.60;99.90
61016;DHT22;46902;52.920;6.536;2024-01-16T11:33:06;1.50;99.90
61016;DHT22;46902;52.920;6.536;2024-01-16T11:35:51;1.60;99.90
61016;DHT22;46902;52.920;6.536;2024-01-16T11:38:17;1.50;99.90
61016;DHT22;46902;52.920;6.536;2024-01-16T11:40:44;1.50;99.90
61016;DHT22;46902;52.920;6.536;2024-01-16T11:46:00;1.50;99.90
61016;DHT22;46902;52.920;6.536;2024-01-16T11:48:26;1.40;99.90
61016;DHT22;46902;52.920;6.536;2024-01-16T11:50:53;1.50;99.90
61016;DHT22;46902;52.920;6.536;2024-01-16T11:53:35;1.40;99.90
61016;DHT22;46902;52.920;6.536;2024-01-16T11:58:48;1.40;99.90
61016;DHT22;46902;52.920;6.536;2024-01-16T12:01:18;1.40;99.90
61016;DHT22;46902;52.920;6.536;2024-01-16T12:03:45;1.30;99.90
61016;DHT22;46902;52.920;6.536;2024-01-16T12:06:10;1.40;99.90
61016;DHT22;46902;52.920;6.536;2024-01-16T12:08:36;1.40;99.90
61016;DHT22;46902;52.920;6.536;2024-01-16T12:11:04;1.40;99.90
61016;DHT22;46902;52.920;6.536;2024-01-16T12:13:29;1.40;99.90
61016;DHT22;46902;52.920;6.536;2024-01-16T12:16:02;1.30;99.90
61016;DHT22;46902;52.920;6.536;2024-01-16T12:18:29;1.40;99.90
61016;DHT22;46902;52.920;6.536;2024-01-16T12:20:55;1.50;99.90
61016;DHT22;46902;52.920;6.536;2024-01-16T12:23:21;1.50;99.90
61016;DHT22;46902;52.920;6.536;2024-01-16T12:25:52;1.50;99.90
61016;DHT22;46902;52.920;6.536;2024-01-16T12:28:20;1.50;99.90
61016;DHT22;46902;52.920;6.536;2024-01-16T12:30:50;1.50;99.90
61016;DHT22;46902;52.920;6.536;2024-01-16T12:33:20;1.60;99.90
61016;DHT22;46902;52.920;6.536;2024-01-16T12:35:46;1.70;99.90
61016;DHT22;46902;52.920;6.536;2024-01-16T12:38:13;2.00;99.90
61016;DHT22;46902;52.920;6.536;2024-01-16T12:40:48;2.40;99.90
61016;DHT22;46902;52.920;6.536;2024-01-16T12:43:17;2.90;99.90
61016;DHT22;46902;52.920;6.536;2024-01-16T12:45:44;3.50;99.90
61016;DHT22;46902;52.920;6.536;2024-01-16T12:48:10;4.30;99.90
61016;DHT22;46902;52.920;6.536;2024-01-16T12:50:36;5.20;99.90
61016;DHT22;46902;52.920;6.536;2024-01-16T12:53:03;6.00;99.90
61016;DHT22;46902;52.920;6.536;2024-01-16T12:55:33;5.90;99.90
61016;DHT22;46902;52.920;6.536;2024-01-16T12:58:32;5.70;99.90
61016;DHT22;46902;52.920;6.536;2024-01-16T13:03:49;6.90;99.90
61016;DHT22;46902;52.920;6.536;2024-01-16T13:06:18;6.40;99.90
61016;DHT22;46902;52.920;6.536;2024-01-16T13:08:48;5.40;99.90
61016;DHT22;46902;52.920;6.536;2024-01-16T13:11:15;4.60;99.90
61016;DHT22;46902;52.920;6.536;2024-01-16T13:13:47;4.00;99.90
61016;DHT22;46902;52.920;6.536;2024-01-16T13:16:17;3.50;99.90
61016;DHT22;46902;52.920;6.536;2024-01-16T13:18:43;3.10;99.90
61016;DHT22;46902;52.920;6.536;2024-01-16T13:21:08;2.80;99.90
61016;DHT22;46902;52.920;6.536;2024-01-16T13:23:35;2.60;99.90
61016;DHT22;46902;52.920;6.536;2024-01-16T13:26:01;2.50;99.90
61016;DHT22;46902;52.920;6.536;2024-01-16T13:28:29;2.40;99.90
61016;DHT22;46902;52.920;6.536;2024-01-16T13:30:55;2.40;99.90
61016;DHT22;46902;52.920;6.536;2024-01-16T13:33:25;2.30;99.90
61016;DHT22;46902;52.920;6.536;2024-01-16T13:35:54;2.40;99.90
61016;DHT22;46902;52.920;6.536;2024-01-16T13:38:22;2.90;99.90
61016;DHT22;46902;52.920;6.536;2024-01-16T13:40:48;3.10;99.90
61016;DHT22;46902;52.920;6.536;2024-01-16T13:43:15;3.10;99.90
61016;DHT22;46902;52.920;6.536;2024-01-16T13:45:41;3.10;99.90
61016;DHT22;46902;52.920;6.536;2024-01-16T13:48:07;3.00;99.90
61016;DHT22;46902;52.920;6.536;2024-01-16T13:50:33;3.10;99.90
61016;DHT22;46902;52.920;6.536;2024-01-16T13:53:00;4.10;99.90
61016;DHT22;46902;52.920;6.536;2024-01-16T13:55:27;5.50;99.90
61016;DHT22;46902;52.920;6.536;2024-01-16T13:57:53;6.70;99.90
61016;DHT22;46902;52.920;6.536;2024-01-16T14:00:18;7.30;99.90
61016;DHT22;46902;52.920;6.536;2024-01-16T14:02:45;7.60;99.90
61016;DHT22;46902;52.920;6.536;2024-01-16T14:05:13;7.80;99.90
61016;DHT22;46902;52.920;6.536;2024-01-16T14:07:43;7.90;99.90
61016;DHT22;46902;52.920;6.536;2024-01-16T14:10:12;7.90;99.90
61016;DHT22;46902;52.920;6.536;2024-01-16T14:12:41;7.40;99.90
61016;DHT22;46902;52.920;6.536;2024-01-16T14:15:15;6.50;99.90
61016;DHT22;46902;52.920;6.536;2024-01-16T14:17:46;5.50;99.90
61016;DHT22;46902;52.920;6.536;2024-01-16T14:20:12;4.80;99.90
61016;DHT22;46902;52.920;6.536;2024-01-16T14:22:39;4.20;99.90
61016;DHT22;46902;52.920;6.536;2024-01-16T14:25:10;3.70;99.90
61016;DHT22;46902;52.920;6.536;2024-01-16T14:28:02;3.40;99.90
61016;DHT22;46902;52.920;6.536;2024-01-16T14:30:29;3.10;99.90
61016;DHT22;46902;52.920;6.536;2024-01-16T14:32:55;2.80;99.90
61016;DHT22;46902;52.920;6.536;2024-01-16T14:35:22;2.60;99.90
61016;DHT22;46902;52.920;6.536;2024-01-16T14:37:52;2.50;99.90
61016;DHT22;46902;52.920;6.536;2024-01-16T14:40:18;2.40;99.90
61016;DHT22;46902;52.920;6.536;2024-01-16T14:42:49;2.30;99.90
61016;DHT22;46902;52.920;6.536;2024-01-16T14:45:21;2.20;99.90
61016;DHT22;46902;52.920;6.536;2024-01-16T14:47:48;2.20;99.90
61016;DHT22;46902;52.920;6.536;2024-01-16T14:50:15;2.20;99.90
61016;DHT22;46902;52.920;6.536;2024-01-16T14:52:46;2.20;99.90
61016;DHT22;46902;52.920;6.536;2024-01-16T14:55:12;2.10;99.90
61016;DHT22;46902;52.920;6.536;2024-01-16T14:57:38;2.10;99.90
61016;DHT22;46902;52.920;6.536;2024-01-16T15:00:17;2.10;99.90
61016;DHT22;46902;52.920;6.536;2024-01-16T15:02:51;2.00;99.90
61016;DHT22;46902;52.920;6.536;2024-01-16T15:05:18;1.90;99.90
61016;DHT22;46902;52.920;6.536;2024-01-16T15:07:44;1.90;99.90
61016;DHT22;46902;52.920;6.536;2024-01-16T15:10:11;1.90;99.90
61016;DHT22;46902;52.920;6.536;2024-01-16T15:12:39;1.80;99.90
61016;DHT22;46902;52.920;6.536;2024-01-16T15:15:09;1.70;99.90
61016;DHT22;46902;52.920;6.536;2024-01-16T15:17:36;1.70;99.90
61016;DHT22;46902;52.920;6.536;2024-01-16T15:20:02;1.60;99.90
61016;DHT22;46902;52.920;6.536;2024-01-16T15:22:29;1.60;99.90
61016;DHT22;46902;52.920;6.536;2024-01-16T15:24:57;1.60;99.90
61016;DHT22;46902;52.920;6.536;2024-01-16T15:27:22;1.50;99.90
61016;DHT22;46902;52.920;6.536;2024-01-16T15:29:48;1.50;99.90
61016;DHT22;46902;52.920;6.536;2024-01-16T15:32:14;1.50;99.90
61016;DHT22;46902;52.920;6.536;2024-01-16T15:34:40;1.40;99.90
61016;DHT22;46902;52.920;6.536;2024-01-16T15:37:06;1.40;99.90
61016;DHT22;46902;52.920;6.536;2024-01-16T15:39:31;1.40;99.90
61016;DHT22;46902;52.920;6.536;2024-01-16T15:41:57;1.40;99.90
61016;DHT22;46902;52.920;6.536;2024-01-16T15:44:23;1.40;99.90
61016;DHT22;46902;52.920;6.536;2024-01-16T15:46:56;1.30;99.90
61016;DHT22;46902;52.920;6.536;2024-01-16T15:49:22;1.30;99.90
61016;DHT22;46902;52.920;6.536;2024-01-16T15:51:49;1.30;99.90
61016;DHT22;46902;52.920;6.536;2024-01-16T15:54:14;1.30;99.90
61016;DHT22;46902;52.920;6.536;2024-01-16T15:56:41;1.20;99.90
61016;DHT22;46902;52.920;6.536;2024-01-16T15:59:07;1.20;99.90